createdAt,value
2023-05-21T00:02:41.657Z,17.65
2023-05-21T00:05:45.153Z,17.58
2023-05-21T00:08:47.177Z,17.68
2023-05-21T00:11:49.579Z,17.64
2023-05-21T00:14:51.740Z,17.78
2023-05-21T00:17:54.039Z,17.76
2023-05-21T00:20:56.152Z,17.61
2023-05-21T00:23:58.787Z,17.52
2023-05-21T00:27:01.042Z,17.55
2023-05-21T00:30:04.117Z,17.50
2023-05-21T00:33:06.115Z,17.48
2023-05-21T00:36:08.988Z,17.37
2023-05-21T00:39:11.589Z,17.30
2023-05-21T00:42:18.039Z,17.30
2023-05-21T00:45:20.080Z,17.18
2023-05-21T00:48:23.574Z,17.05
2023-05-21T00:51:30.148Z,17.05
2023-05-21T00:54:32.556Z,17.05
2023-05-21T00:57:37.155Z,17.02
2023-05-21T01:00:40.684Z,17.00
2023-05-21T01:03:42.895Z,16.92
2023-05-21T01:06:45.342Z,16.76
2023-05-21T01:09:47.733Z,16.74
2023-05-21T01:12:51.160Z,16.77
2023-05-21T01:15:53.748Z,16.85
2023-05-21T01:18:58.022Z,16.77
2023-05-21T01:22:07.290Z,16.79
2023-05-21T01:25:10.540Z,16.77
2023-05-21T01:28:12.822Z,16.71
2023-05-21T01:31:27.640Z,16.75
2023-05-21T01:34:55.903Z,16.71
2023-05-21T01:38:05.009Z,16.65
2023-05-21T01:41:10.470Z,16.61
2023-05-21T01:44:13.069Z,16.55
2023-05-21T01:47:16.824Z,16.51
2023-05-21T01:50:19.559Z,16.38
2023-05-21T01:53:22.008Z,16.40
2023-05-21T01:56:25.836Z,16.36
2023-05-21T01:59:27.919Z,16.33
2023-05-21T02:02:30.300Z,16.29
2023-05-21T02:05:32.637Z,16.28
2023-05-21T02:08:34.661Z,16.16
2023-05-21T02:11:37.405Z,16.11
2023-05-21T02:14:39.752Z,16.07
2023-05-21T02:17:42.567Z,16.00
2023-05-21T02:20:45.309Z,15.95
2023-05-21T02:23:47.333Z,15.89
2023-05-21T02:26:50.528Z,15.83
2023-05-21T02:29:52.504Z,15.83
2023-05-21T02:32:55.186Z,15.80
2023-05-21T02:35:57.336Z,15.77
2023-05-21T02:39:01.735Z,15.78
2023-05-21T02:42:03.930Z,15.75
2023-05-21T02:45:09.817Z,15.74
2023-05-21T02:48:12.399Z,15.71
2023-05-21T02:51:14.961Z,15.68
2023-05-21T02:54:17.064Z,15.72
2023-05-21T02:57:19.682Z,15.72
2023-05-21T03:00:21.699Z,15.69
2023-05-21T03:03:24.642Z,15.63
2023-05-21T03:06:26.872Z,15.60
2023-05-21T03:09:29.134Z,15.55
2023-05-21T03:12:31.640Z,15.58
2023-05-21T03:15:34.576Z,15.63
2023-05-21T03:18:36.730Z,15.66
2023-05-21T03:21:39.110Z,15.62
2023-05-21T03:24:41.382Z,15.64
2023-05-21T03:27:43.993Z,15.73
2023-05-21T03:30:49.623Z,15.68
2023-05-21T03:33:55.419Z,15.73
2023-05-21T03:36:57.757Z,15.73
2023-05-21T03:40:00.964Z,15.77
2023-05-21T03:43:03.054Z,15.82
2023-05-21T03:46:05.513Z,15.89
2023-05-21T03:49:09.540Z,16.03
2023-05-21T03:52:12.033Z,16.04
2023-05-21T03:55:14.066Z,16.04
2023-05-21T03:58:16.486Z,16.14
2023-05-21T04:01:19.562Z,16.20
2023-05-21T04:04:21.971Z,16.20
2023-05-21T04:07:24.091Z,16.29
2023-05-21T04:10:26.954Z,16.39
2023-05-21T04:13:29.376Z,16.65
2023-05-21T04:16:34.506Z,16.85
2023-05-21T04:19:36.719Z,17.02
2023-05-21T04:22:39.478Z,17.17
2023-05-21T04:25:41.654Z,17.43
2023-05-21T04:28:45.815Z,17.82
2023-05-21T04:31:49.707Z,17.83
2023-05-21T04:34:52.217Z,17.76
2023-05-21T04:37:54.999Z,17.70
2023-05-21T04:40:58.754Z,17.62
2023-05-21T04:44:01.055Z,17.57
2023-05-21T04:47:04.700Z,17.60
2023-05-21T04:50:06.975Z,17.58
2023-05-21T04:53:09.355Z,17.70
2023-05-21T04:56:11.484Z,17.79
2023-05-21T04:59:14.248Z,17.92
2023-05-21T05:02:16.354Z,17.91
2023-05-21T05:05:18.880Z,18.18
2023-05-21T05:08:21.043Z,18.30
2023-05-21T05:11:23.390Z,18.44
2023-05-21T05:14:26.246Z,18.79
2023-05-21T05:17:28.561Z,18.96
2023-05-21T05:20:30.603Z,19.31
2023-05-21T05:23:32.975Z,19.37
2023-05-21T05:26:34.933Z,19.61
2023-05-21T05:29:37.526Z,19.81
2023-05-21T05:32:39.636Z,20.06
2023-05-21T05:35:42.195Z,20.42
2023-05-21T05:38:44.257Z,21.21
2023-05-21T05:41:46.634Z,22.59
2023-05-21T05:44:48.726Z,24.04
2023-05-21T05:47:51.260Z,25.26
2023-05-21T05:50:54.956Z,26.83
2023-05-21T05:53:57.569Z,27.59
2023-05-21T05:56:59.627Z,27.36
2023-05-21T06:00:02.407Z,28.19
2023-05-21T06:03:14.196Z,29.03
2023-05-21T06:06:17.501Z,29.14
2023-05-21T06:09:19.636Z,29.43
2023-05-21T06:12:23.022Z,28.59
2023-05-21T06:15:25.057Z,27.87
2023-05-21T06:18:27.443Z,27.21
2023-05-21T06:21:29.451Z,27.91
2023-05-21T06:24:32.312Z,27.72
2023-05-21T06:27:34.528Z,26.84
2023-05-21T06:30:37.273Z,26.67
2023-05-21T06:33:39.328Z,26.40
2023-05-21T06:36:42.171Z,26.14
2023-05-21T06:39:44.126Z,27.03
2023-05-21T06:42:46.552Z,27.79
2023-05-21T06:45:51.839Z,28.15
2023-05-21T06:48:55.524Z,28.14
2023-05-21T06:51:57.589Z,27.97
2023-05-21T06:54:59.910Z,28.39
2023-05-21T06:58:02.359Z,27.83
2023-05-21T07:01:05.993Z,28.71
2023-05-21T07:04:08.652Z,29.81
2023-05-21T07:07:11.422Z,29.76
2023-05-21T07:10:13.457Z,30.46
2023-05-21T07:13:16.343Z,29.49
2023-05-21T07:16:18.348Z,29.07
2023-05-21T07:19:21.893Z,29.33
2023-05-21T07:22:25.976Z,29.19
2023-05-21T07:25:30.092Z,27.72
2023-05-21T07:28:32.402Z,26.90
2023-05-21T07:31:35.324Z,25.97
2023-05-21T07:34:37.517Z,25.64
2023-05-21T07:37:40.007Z,24.75
2023-05-21T07:40:42.165Z,24.43
2023-05-21T07:43:44.455Z,24.97
2023-05-21T07:46:46.678Z,24.86
2023-05-21T07:49:49.734Z,25.58
2023-05-21T07:52:51.845Z,25.22
2023-05-21T07:55:54.716Z,25.18
2023-05-21T07:58:57.034Z,25.10
2023-05-21T08:02:00.321Z,25.07
2023-05-21T08:05:02.692Z,25.09
2023-05-21T08:08:05.683Z,24.83
2023-05-21T08:11:08.820Z,24.96
2023-05-21T08:14:11.635Z,25.16
2023-05-21T08:17:13.997Z,24.84
2023-05-21T08:20:16.187Z,25.00
2023-05-21T08:23:18.838Z,24.98
2023-05-21T08:26:21.853Z,24.91
2023-05-21T08:29:24.220Z,24.18
2023-05-21T08:32:28.264Z,24.08
2023-05-21T08:35:30.762Z,24.15
2023-05-21T08:38:33.071Z,24.15
2023-05-21T08:41:36.050Z,24.16
2023-05-21T08:44:44.291Z,24.10
2023-05-21T08:47:46.841Z,24.23
2023-05-21T08:50:50.707Z,24.17
2023-05-21T08:53:55.908Z,24.34
2023-05-21T08:56:59.481Z,24.27
2023-05-21T09:00:02.611Z,24.46
2023-05-21T09:03:10.512Z,24.66
2023-05-21T09:06:16.507Z,24.45
2023-05-21T09:09:32.532Z,25.14
2023-05-21T09:12:35.338Z,25.92
2023-05-21T09:15:38.076Z,26.60
2023-05-21T09:18:41.454Z,27.80
2023-05-21T09:21:44.293Z,29.67
2023-05-21T09:24:47.937Z,29.81
2023-05-21T09:27:51.599Z,30.34
2023-05-21T09:30:54.254Z,30.57
2023-05-21T09:33:56.557Z,30.85
2023-05-21T09:37:01.512Z,31.32
2023-05-21T09:40:10.126Z,31.32
2023-05-21T09:43:16.228Z,31.69
2023-05-21T09:46:20.892Z,31.58
2023-05-21T09:49:24.736Z,31.04
2023-05-21T09:52:28.192Z,30.97
2023-05-21T09:55:31.369Z,31.16
2023-05-21T09:58:34.370Z,31.48
2023-05-21T10:01:37.469Z,32.06
2023-05-21T10:04:39.986Z,33.22
2023-05-21T10:07:42.835Z,32.89
2023-05-21T10:10:46.813Z,34.01
2023-05-21T10:13:52.082Z,33.76
2023-05-21T10:16:54.661Z,33.99
2023-05-21T10:19:56.852Z,33.38
2023-05-21T10:22:59.145Z,32.22
2023-05-21T10:26:01.176Z,33.02
2023-05-21T10:29:03.574Z,33.57
2023-05-21T10:32:05.812Z,33.90
2023-05-21T10:35:08.970Z,33.88
2023-05-21T10:38:11.942Z,33.60
2023-05-21T10:41:16.035Z,34.21
2023-05-21T10:44:36.945Z,33.72
2023-05-21T10:47:58.165Z,33.91
2023-05-21T10:51:06.533Z,34.83
2023-05-21T10:54:19.473Z,33.79
2023-05-21T10:57:45.937Z,34.41
2023-05-21T11:00:48.537Z,34.35
2023-05-21T11:03:50.665Z,34.22
2023-05-21T11:06:53.037Z,33.70
2023-05-21T11:10:14.992Z,31.66
2023-05-21T11:13:19.689Z,30.41
2023-05-21T11:16:25.840Z,31.68
2023-05-21T11:19:36.131Z,32.21
2023-05-21T11:22:38.247Z,31.93
2023-05-21T11:25:40.563Z,30.54
2023-05-21T11:28:42.553Z,29.29
2023-05-21T11:31:48.715Z,29.12
2023-05-21T11:34:50.880Z,30.35
2023-05-21T11:37:56.190Z,31.60
2023-05-21T11:41:01.800Z,31.85
2023-05-21T11:44:08.291Z,31.71
2023-05-21T11:47:11.616Z,29.94
2023-05-21T11:50:14.663Z,30.20
2023-05-21T11:53:16.678Z,32.24
2023-05-21T11:56:20.383Z,32.65
2023-05-21T11:59:22.389Z,31.10
2023-05-21T12:02:25.351Z,29.70
2023-05-21T12:05:27.696Z,28.92
2023-05-21T12:08:30.490Z,27.88
2023-05-21T12:11:32.730Z,29.74
2023-05-21T12:14:35.307Z,31.31
2023-05-21T12:17:37.736Z,29.96
2023-05-21T12:20:39.761Z,28.49
2023-05-21T12:23:42.042Z,29.27
2023-05-21T12:26:45.994Z,30.68
2023-05-21T12:29:51.933Z,30.74
2023-05-21T12:32:53.971Z,29.78
2023-05-21T12:35:56.609Z,31.19
2023-05-21T12:38:58.732Z,32.11
2023-05-21T12:42:02.088Z,32.40
2023-05-21T12:45:07.889Z,29.94
2023-05-21T12:48:10.209Z,29.69
2023-05-21T12:51:12.712Z,30.56
2023-05-21T12:54:14.982Z,30.34
2023-05-21T12:57:18.380Z,29.83
2023-05-21T13:00:23.631Z,29.71
2023-05-21T13:03:26.360Z,29.25
2023-05-21T13:06:28.589Z,28.11
2023-05-21T13:09:30.640Z,27.56
2023-05-21T13:12:33.419Z,27.89
2023-05-21T13:15:35.590Z,27.94
2023-05-21T13:18:38.312Z,27.90
2023-05-21T13:21:40.314Z,27.99
2023-05-21T13:24:42.590Z,28.24
2023-05-21T13:27:44.589Z,28.12
2023-05-21T13:30:46.934Z,28.05
2023-05-21T13:33:48.982Z,28.23
2023-05-21T13:36:51.205Z,28.46
2023-05-21T13:39:53.236Z,28.29
2023-05-21T13:42:55.576Z,27.72
2023-05-21T13:45:57.728Z,27.35
2023-05-21T13:49:00.706Z,27.27
2023-05-21T13:52:03.573Z,27.10
2023-05-21T13:55:06.422Z,27.00
2023-05-21T13:58:08.451Z,27.07
2023-05-21T14:01:11.870Z,27.06
2023-05-21T14:04:14.166Z,27.11
2023-05-21T14:07:16.837Z,27.01
2023-05-21T14:10:20.361Z,27.02
2023-05-21T14:13:22.420Z,26.83
2023-05-21T14:16:27.299Z,26.45
2023-05-21T14:19:32.274Z,26.61
2023-05-21T14:22:34.684Z,26.92
2023-05-21T14:25:37.240Z,26.75
2023-05-21T14:28:39.588Z,26.73
2023-05-21T14:31:41.857Z,26.71
2023-05-21T14:34:44.189Z,26.75
2023-05-21T14:37:46.211Z,26.78
2023-05-21T14:40:48.520Z,26.85
2023-05-21T14:43:50.455Z,26.86
2023-05-21T14:46:52.787Z,27.03
2023-05-21T14:49:54.911Z,26.96
2023-05-21T14:52:57.249Z,26.85
2023-05-21T14:55:59.229Z,26.75
2023-05-21T14:59:01.613Z,26.51
2023-05-21T15:02:03.690Z,26.56
2023-05-21T15:05:06.293Z,26.75
2023-05-21T15:08:09.654Z,26.68
2023-05-21T15:11:11.991Z,26.49
2023-05-21T15:14:13.994Z,26.52
2023-05-21T15:17:16.270Z,26.46
2023-05-21T15:20:19.690Z,26.58
2023-05-21T15:23:22.025Z,26.42
2023-05-21T15:26:25.580Z,26.42
2023-05-21T15:29:28.037Z,26.47
2023-05-21T15:32:30.613Z,26.28
2023-05-21T15:35:33.066Z,26.03
2023-05-21T15:38:35.224Z,25.95
2023-05-21T15:41:38.304Z,26.10
2023-05-21T15:44:40.558Z,26.05
2023-05-21T15:47:43.328Z,25.95
2023-05-21T15:50:45.426Z,25.83
2023-05-21T15:53:47.711Z,25.66
2023-05-21T15:56:50.372Z,25.78
2023-05-21T15:59:52.845Z,25.87
2023-05-21T16:02:54.981Z,25.89
2023-05-21T16:05:57.355Z,25.87
2023-05-21T16:08:59.927Z,25.78
2023-05-21T16:12:02.225Z,25.63
2023-05-21T16:15:04.586Z,25.62
2023-05-21T16:18:08.267Z,25.60
2023-05-21T16:21:10.418Z,25.52
2023-05-21T16:24:12.788Z,25.52
2023-05-21T16:27:14.811Z,25.52
2023-05-21T16:30:17.169Z,25.42
2023-05-21T16:33:19.258Z,25.36
2023-05-21T16:36:21.532Z,25.30
2023-05-21T16:39:23.540Z,25.32
2023-05-21T16:42:25.986Z,25.27
2023-05-21T16:45:34.704Z,25.15
2023-05-21T16:48:39.315Z,25.15
2023-05-21T16:51:41.418Z,25.03
2023-05-21T16:54:48.568Z,24.99
2023-05-21T16:57:50.655Z,24.82
2023-05-21T17:00:52.908Z,24.77
2023-05-21T17:03:55.965Z,24.72
2023-05-21T17:06:58.491Z,24.62
2023-05-21T17:10:00.491Z,24.51
2023-05-21T17:13:20.623Z,24.53
2023-05-21T17:16:24.977Z,24.54
2023-05-21T17:19:27.540Z,24.52
2023-05-21T17:22:29.656Z,24.43
2023-05-21T17:25:34.153Z,24.31
2023-05-21T17:28:36.623Z,24.20
2023-05-21T17:31:38.949Z,24.07
2023-05-21T17:34:41.020Z,23.85
2023-05-21T17:37:43.265Z,23.74
2023-05-21T17:40:45.220Z,23.67
2023-05-21T17:43:47.826Z,23.62
2023-05-21T17:46:50.627Z,23.71
2023-05-21T17:49:52.921Z,23.64
2023-05-21T17:52:55.002Z,23.65
2023-05-21T17:55:57.360Z,23.35
2023-05-21T17:58:59.368Z,23.18
2023-05-21T18:02:01.717Z,23.11
2023-05-21T18:05:04.121Z,22.87
2023-05-21T18:08:07.003Z,22.73
2023-05-21T18:11:09.390Z,22.52
2023-05-21T18:14:11.388Z,22.29
2023-05-21T18:17:13.702Z,22.08
2023-05-21T18:20:15.750Z,21.90
2023-05-21T18:23:18.066Z,21.72
2023-05-21T18:26:20.563Z,21.71
2023-05-21T18:29:22.879Z,21.64
2023-05-21T18:32:25.032Z,21.59
2023-05-21T18:35:27.710Z,21.49
2023-05-21T18:38:29.700Z,21.37
2023-05-21T18:41:31.958Z,21.29
2023-05-21T18:44:33.994Z,21.28
2023-05-21T18:47:36.396Z,21.13
2023-05-21T18:50:38.857Z,21.06
2023-05-21T18:53:41.296Z,20.97
2023-05-21T18:56:43.373Z,20.85
2023-05-21T18:59:45.771Z,20.74
2023-05-21T19:02:47.845Z,20.64
2023-05-21T19:05:50.172Z,20.54
2023-05-21T19:08:52.942Z,20.46
2023-05-21T19:11:56.181Z,20.39
2023-05-21T19:14:58.203Z,20.31
2023-05-21T19:18:01.220Z,20.24
2023-05-21T19:21:03.901Z,20.15
2023-05-21T19:24:06.518Z,20.10
2023-05-21T19:27:08.463Z,20.02
2023-05-21T19:30:11.008Z,19.94
2023-05-21T19:33:13.225Z,19.85
2023-05-21T19:36:15.790Z,19.79
2023-05-21T19:39:17.829Z,19.71
2023-05-21T19:42:21.354Z,19.65
2023-05-21T19:45:25.280Z,19.59
2023-05-21T19:48:27.585Z,19.54
2023-05-21T19:51:29.586Z,19.56
2023-05-21T19:54:31.917Z,19.53
2023-05-21T19:57:33.989Z,19.50
2023-05-21T20:00:36.232Z,19.45
2023-05-21T20:03:38.775Z,19.36
2023-05-21T20:06:40.805Z,19.29
2023-05-21T20:09:43.174Z,19.31
2023-05-21T20:12:45.342Z,19.26
2023-05-21T20:15:50.507Z,19.19
2023-05-21T20:18:56.771Z,19.13
2023-05-21T20:21:59.315Z,19.12
2023-05-21T20:25:02.835Z,19.15
2023-05-21T20:28:05.545Z,19.21
2023-05-21T20:31:07.732Z,19.21
2023-05-21T20:34:12.279Z,19.16
2023-05-21T20:37:14.464Z,19.17
2023-05-21T20:40:16.827Z,19.10
2023-05-21T20:43:19.984Z,19.03
2023-05-21T20:46:22.268Z,18.96
2023-05-21T20:49:24.755Z,18.96
2023-05-21T20:52:27.385Z,18.98
2023-05-21T20:55:34.622Z,19.01
2023-05-21T20:58:36.946Z,19.02
2023-05-21T21:01:40.689Z,19.04
2023-05-21T21:04:43.692Z,19.01
2023-05-21T21:07:45.671Z,19.04
2023-05-21T21:10:48.065Z,19.06
2023-05-21T21:13:50.392Z,19.07
2023-05-21T21:16:52.664Z,19.12
2023-05-21T21:19:54.829Z,19.11
2023-05-21T21:22:57.153Z,19.09
2023-05-21T21:25:59.168Z,19.06
2023-05-21T21:29:01.416Z,19.06
2023-05-21T21:32:03.490Z,19.10
2023-05-21T21:35:06.164Z,19.09
2023-05-21T21:38:08.262Z,19.08
2023-05-21T21:41:10.547Z,19.07
2023-05-21T21:44:12.576Z,19.10
2023-05-21T21:47:14.901Z,19.16
2023-05-21T21:50:16.921Z,19.24
2023-05-21T21:53:19.123Z,19.30
2023-05-21T21:56:22.089Z,19.34
2023-05-21T21:59:24.360Z,19.30
2023-05-21T22:02:26.372Z,19.26
2023-05-21T22:05:30.759Z,19.30
2023-05-21T22:08:32.842Z,19.27
2023-05-21T22:11:35.413Z,19.33
2023-05-21T22:14:37.408Z,19.16
2023-05-21T22:17:40.129Z,19.11
2023-05-21T22:20:43.563Z,19.08
2023-05-21T22:23:45.890Z,19.07
2023-05-21T22:26:47.844Z,19.02
2023-05-21T22:29:50.155Z,18.94
2023-05-21T22:32:52.475Z,18.94
2023-05-21T22:35:54.905Z,18.88
2023-05-21T22:38:56.884Z,18.92
2023-05-21T22:41:59.524Z,18.82
2023-05-21T22:45:02.004Z,18.72
2023-05-21T22:48:07.286Z,18.57
2023-05-21T22:51:11.245Z,18.49
2023-05-21T22:54:13.487Z,18.44
2023-05-21T22:57:15.631Z,18.35
2023-05-21T23:00:19.291Z,18.32
2023-05-21T23:03:21.301Z,18.34
2023-05-21T23:06:23.569Z,18.16
2023-05-21T23:09:25.974Z,18.15
2023-05-21T23:12:28.295Z,18.01
2023-05-21T23:15:30.565Z,17.92
2023-05-21T23:18:32.870Z,17.82
2023-05-21T23:21:34.910Z,17.80
2023-05-21T23:24:37.302Z,17.70
2023-05-21T23:27:39.340Z,17.62
2023-05-21T23:30:41.691Z,17.55
2023-05-21T23:33:44.013Z,17.59
2023-05-21T23:36:46.493Z,17.51
2023-05-21T23:39:49.688Z,17.46
2023-05-21T23:42:52.151Z,17.44
2023-05-21T23:45:54.173Z,17.44
2023-05-21T23:48:56.622Z,17.39
2023-05-21T23:51:58.844Z,17.32
2023-05-21T23:55:01.121Z,17.36
2023-05-21T23:58:03.896Z,17.40
